Time;durP1;ratioP1;P1;durP2;ratioP2;P2;SDS_P1;SDS_P2;PMS_P1;PMS_P2;Temp;Humidity;BMP_temperature;BMP_pressure;BME280_temperature;BME280_humidity;BME280_pressure;Samples;Min_cycle;Max_cycle;Signal;HPM_P1;HPM_P2
2022/11/12 00:00:18;;;;;;;38.85;25.33;;;;;;;5.98;100.00;102911.88;4996019;28;20037;-59
2022/11/12 00:02:43;;;;;;;47.85;28.27;;;;;;;6.55;100.00;103002.75;5013251;28;20037;-60
2022/11/12 00:05:08;;;;;;;54.53;31.77;;;;;;;6.67;100.00;102980.31;4982455;28;20060;-60
2022/11/12 00:07:34;;;;;;;70.72;36.70;;;;;;;6.67;100.00;102950.66;5032906;28;20057;-58
2022/11/12 00:09:59;;;;;;;74.63;42.55;;;;;;;6.86;100.00;102947.47;5012091;28;20405;-59
2022/11/12 00:12:24;;;;;;;74.50;42.30;;;;;;;7.20;100.00;102980.31;5016041;28;20045;-59
2022/11/12 00:14:50;;;;;;;80.93;43.45;;;;;;;7.32;100.00;102981.41;5013108;28;20409;-59
2022/11/12 00:17:15;;;;;;;71.82;42.15;;;;;;;7.08;100.00;102922.50;5013020;28;20037;-59
2022/11/12 00:19:40;;;;;;;70.63;39.38;;;;;;;7.54;100.00;102984.31;4995689;28;20038;-58
2022/11/12 00:22:06;;;;;;;73.00;41.53;;;;;;;7.21;100.00;102924.44;5012915;28;20049;-58
2022/11/12 00:24:31;;;;;;;76.70;42.70;;;;;;;7.24;100.00;102917.50;5012758;28;20061;-59
2022/11/12 00:26:56;;;;;;;81.80;44.10;;;;;;;7.66;100.00;102984.47;5012989;28;20038;-60
2022/11/12 00:29:21;;;;;;;77.65;45.83;;;;;;;7.71;100.00;102977.53;4996038;28;20539;-58
2022/11/12 00:31:47;;;;;;;85.13;47.08;;;;;;;7.51;100.00;102916.13;4995344;28;20033;-60
2022/11/12 00:34:12;;;;;;;82.50;46.40;;;;;;;7.59;100.00;102927.63;4995303;28;20073;-59
2022/11/12 00:36:37;;;;;;;75.00;44.53;;;;;;;7.94;100.00;103000.59;5012908;28;20117;-60
2022/11/12 00:39:03;;;;;;;76.47;43.55;;;;;;;7.64;100.00;102942.53;5012474;28;20137;-59
2022/11/12 00:41:28;;;;;;;76.75;45.17;;;;;;;7.69;100.00;102945.19;5020610;28;20033;-60
2022/11/12 00:43:53;;;;;;;76.68;45.70;;;;;;;7.96;100.00;102981.38;5032405;28;20465;-59
2022/11/12 00:46:19;;;;;;;74.75;46.15;;;;;;;7.76;100.00;102947.06;5032456;28;20044;-61
2022/11/12 00:48:44;;;;;;;78.05;46.55;;;;;;;7.47;100.00;102898.63;5031911;28;20037;-59
2022/11/12 00:51:09;;;;;;;79.22;46.42;;;;;;;7.61;100.00;102920.63;5031450;28;20111;-59
2022/11/12 00:53:35;;;;;;;79.57;45.05;;;;;;;7.99;100.00;102978.78;5032092;28;20481;-60
2022/11/12 00:56:02;;;;;;;73.13;45.97;;;;;;;7.98;100.00;102977.91;5031685;28;20075;-58
2022/11/12 00:58:29;;;;;;;76.70;47.15;;;;;;;7.97;100.00;102965.66;5031923;28;20038;-59
2022/11/12 01:00:54;;;;;;;74.47;45.00;;;;;;;8.07;100.00;102978.03;5026249;28;20045;-60
2022/11/12 01:03:20;;;;;;;73.30;45.95;;;;;;;8.03;100.00;102970.09;5031729;28;20527;-60
2022/11/12 01:05:45;;;;;;;74.53;46.63;;;;;;;7.81;100.00;102924.38;5014840;28;20115;-59
2022/11/12 01:08:10;;;;;;;77.30;47.10;;;;;;;8.18;100.00;102965.03;5031926;28;20487;-59
2022/11/12 01:10:36;;;;;;;75.50;46.92;;;;;;;8.17;100.00;102961.50;5022520;28;20033;-58
2022/11/12 01:13:01;;;;;;;75.30;46.38;;;;;;;8.16;100.00;102958.88;4994540;28;20179;-59
2022/11/12 01:15:26;;;;;;;70.65;44.88;;;;;;;7.85;100.00;102910.47;5012570;28;20069;-59
2022/11/12 01:17:51;;;;;;;73.40;43.92;;;;;;;8.19;100.00;102974.66;4994704;28;20061;-59
2022/11/12 01:20:17;;;;;;;74.93;44.95;;;;;;;8.19;100.00;102985.16;5000914;28;20112;-59
2022/11/12 01:22:42;;;;;;;77.03;46.92;;;;;;;8.07;100.00;102978.03;5014166;28;20116;-59
2022/11/12 01:25:08;;;;;;;73.82;46.10;;;;;;;8.16;100.00;102993.88;4994841;28;20474;-59
2022/11/12 01:27:33;;;;;;;69.55;45.58;;;;;;;7.80;100.00;102914.75;5012259;28;20045;-59
2022/11/12 01:29:58;;;;;;;73.82;45.60;;;;;;;7.59;100.00;102893.53;5012544;28;20038;-59
2022/11/12 01:32:24;;;;;;;74.90;45.97;;;;;;;7.74;100.00;102918.19;4994523;28;20448;-59
2022/11/12 01:34:50;;;;;;;75.18;47.55;;;;;;;8.05;100.00;102977.13;5012253;28;20022;-59
2022/11/12 01:37:15;;;;;;;74.53;46.70;;;;;;;8.18;100.00;103000.00;4994518;28;20038;-58
2022/11/12 01:39:40;;;;;;;75.65;46.33;;;;;;;8.10;100.00;102987.66;5011684;28;20053;-59
2022/11/12 01:42:06;;;;;;;71.78;46.50;;;;;;;7.88;100.00;102945.44;4994805;28;20030;-59
2022/11/12 01:44:34;;;;;;;74.78;46.25;;;;;;;7.85;100.00;102918.34;4995012;28;20050;-59
2022/11/12 01:47:21;;;;;;;80.88;48.75;;;;;;;7.86;100.00;102920.06;5011978;28;20440;-60
2022/11/12 01:49:58;;;;;;;70.28;45.00;;;;;;;7.86;100.00;102913.09;5011953;28;20081;-59
2022/11/12 01:52:26;;;;;;;75.45;45.92;;;;;;;8.30;100.00;102984.44;5012179;28;20038;-60
2022/11/12 01:54:54;;;;;;;75.38;46.08;;;;;;;8.34;100.00;102972.25;5012104;28;20065;-60
2022/11/12 01:57:27;;;;;;;74.75;46.22;;;;;;;8.29;100.00;102966.06;4994616;28;20080;-59
2022/11/12 01:59:55;;;;;;;78.90;45.50;;;;;;;8.32;100.00;102976.56;5012755;28;20058;-59
2022/11/12 02:02:20;;;;;;;76.68;45.70;;;;;;;7.96;100.00;102910.56;4998231;28;20401;-58
2022/11/12 02:04:46;;;;;;;74.13;46.42;;;;;;;8.06;100.00;102923.78;4999899;28;20037;-59
2022/11/12 02:07:12;;;;;;;78.00;47.13;;;;;;;8.06;100.00;102909.78;5017814;28;20057;-59
2022/11/12 02:09:37;;;;;;;77.18;47.20;;;;;;;8.38;100.00;102967.03;5035234;28;20381;-59
2022/11/12 02:12:03;;;;;;;76.97;47.05;;;;;;;8.26;100.00;102943.25;5017598;28;20040;-59
2022/11/12 02:14:28;;;;;;;84.35;48.58;;;;;;;8.29;100.00;102953.81;5035402;28;20098;-59
2022/11/12 02:16:54;;;;;;;77.63;48.50;;;;;;;8.29;100.00;102948.56;5015540;28;20030;-59
2022/11/12 02:19:19;;;;;;;79.35;47.05;;;;;;;8.39;100.00;102957.41;5015280;28;20096;-59
2022/11/12 02:21:44;;;;;;;81.72;48.45;;;;;;;8.01;100.00;102886.16;4997632;28;20176;-59
2022/11/12 02:24:13;;;;;;;82.65;50.10;;;;;;;8.39;100.00;102955.69;4997702;28;20037;-60
2022/11/12 02:26:46;;;;;;;86.50;49.33;;;;;;;8.07;100.00;102901.97;5015280;28;20042;-59
2022/11/12 02:29:12;;;;;;;88.85;50.70;;;;;;;7.92;100.00;102876.44;4997621;28;20496;-59
2022/11/12 02:31:37;;;;;;;85.95;51.05;;;;;;;8.38;100.00;102950.41;5015516;28;20069;-59
2022/11/12 02:34:03;;;;;;;87.32;50.08;;;;;;;8.37;100.00;102946.91;5014981;28;21314;-59
2022/11/12 02:36:28;;;;;;;81.65;48.40;;;;;;;8.37;100.00;102936.44;5030489;28;20041;-60
2022/11/12 02:38:54;;;;;;;90.53;50.85;;;;;;;8.00;100.00;102875.66;5019042;28;20062;-58
2022/11/12 02:41:19;;;;;;;89.30;49.97;;;;;;;7.97;100.00;102876.47;5015081;28;20100;-59
2022/11/12 02:43:45;;;;;;;89.38;52.03;;;;;;;7.81;100.00;102858.84;5015505;28;20096;-61
2022/11/12 02:46:10;;;;;;;85.70;50.80;;;;;;;7.88;100.00;102866.78;5026658;28;20057;-60
2022/11/12 02:48:36;;;;;;;89.47;52.30;;;;;;;7.95;100.00;102875.59;5016919;28;20037;-58
2022/11/12 02:51:01;;;;;;;91.65;51.97;;;;;;;8.10;100.00;102890.63;5034758;28;20080;-59
2022/11/12 02:53:27;;;;;;;94.03;52.85;;;;;;;8.19;100.00;102909.97;5034515;28;20038;-58
2022/11/12 02:55:52;;;;;;;91.47;51.80;;;;;;;8.28;100.00;102935.44;5007398;28;20080;-60
2022/11/12 02:58:17;;;;;;;101.70;53.33;;;;;;;8.04;100.00;102880.94;5014658;28;20402;-58
2022/11/12 03:00:43;;;;;;;93.60;51.42;;;;;;;8.38;100.00;102930.28;5014657;28;20034;-59
2022/11/12 03:03:08;;;;;;;92.20;49.88;;;;;;;8.00;100.00;102870.41;5014905;28;20501;-59
2022/11/12 03:05:34;;;;;;;87.80;50.35;;;;;;;8.38;100.00;102942.53;4996971;28;20252;-59
2022/11/12 03:08:01;;;;;;;86.18;50.33;;;;;;;7.98;100.00;102873.00;4997494;28;20045;-59
2022/11/12 03:10:28;;;;;;;81.88;49.85;;;;;;;8.33;100.00;102931.13;5013755;28;20037;-59
2022/11/12 03:12:56;;;;;;;84.60;51.17;;;;;;;8.42;100.00;102939.09;5016039;28;20456;-57
2022/11/12 03:15:21;;;;;;;87.25;50.33;;;;;;;8.00;100.00;102859.94;5012370;28;20029;-58
2022/11/12 03:17:46;;;;;;;80.82;47.90;;;;;;;8.45;100.00;102934.75;5014436;28;20041;-59
2022/11/12 03:20:12;;;;;;;77.78;47.20;;;;;;;8.44;100.00;102948.72;4996782;28;20045;-60
2022/11/12 03:22:38;;;;;;;81.63;47.75;;;;;;;8.07;100.00;102867.88;5014321;28;20104;-59
2022/11/12 03:25:04;;;;;;;79.80;48.00;;;;;;;8.27;100.00;102897.81;4996365;28;20436;-60
2022/11/12 03:27:29;;;;;;;79.07;47.33;;;;;;;8.17;100.00;102874.94;5014077;28;20122;-59
2022/11/12 03:29:55;;;;;;;84.53;48.25;;;;;;;8.43;100.00;102925.09;5014226;28;20054;-60
2022/11/12 03:32:20;;;;;;;89.57;48.55;;;;;;;8.33;100.00;102913.63;5014348;28;20030;-59
2022/11/12 03:34:45;;;;;;;85.40;46.90;;;;;;;8.14;100.00;102876.69;5026230;28;20049;-59
2022/11/12 03:37:11;;;;;;;82.18;47.40;;;;;;;8.43;100.00;102938.22;5033656;28;20048;-59
2022/11/12 03:39:36;;;;;;;79.63;47.50;;;;;;;8.41;100.00;102935.56;5033551;28;20061;-59
2022/11/12 03:42:02;;;;;;;81.57;47.78;;;;;;;8.42;100.00;102946.94;5033716;28;20099;-58
2022/11/12 03:44:27;;;;;;;88.10;49.03;;;;;;;8.39;100.00;102944.28;5033558;28;20038;-58
2022/11/12 03:46:53;;;;;;;83.55;47.95;;;;;;;8.35;100.00;102937.25;5017548;28;20112;-59
2022/11/12 03:49:18;;;;;;;84.05;47.20;;;;;;;8.32;100.00;102927.59;5013626;28;20152;-60
2022/11/12 03:51:43;;;;;;;85.90;48.17;;;;;;;8.43;100.00;102936.44;5013380;28;20211;-58
2022/11/12 03:54:08;;;;;;;91.60;50.67;;;;;;;8.18;100.00;102895.06;5013536;28;20508;-59
2022/11/12 03:56:34;;;;;;;82.72;48.25;;;;;;;8.15;100.00;102888.91;5014609;28;20478;-59
2022/11/12 03:58:59;;;;;;;81.32;46.67;;;;;;;8.49;100.00;102951.41;5031281;28;20033;-58
2022/11/12 04:01:24;;;;;;;89.75;49.28;;;;;;;8.46;100.00;102938.25;5033367;28;20087;-60
2022/11/12 04:03:50;;;;;;;89.60;47.22;;;;;;;8.35;100.00;102921.50;5021097;28;20069;-59
2022/11/12 04:08:59;;;;;;;96.68;47.17;;;;;;;8.47;100.00;102946.13;5020694;28;20057;-59
2022/11/12 04:11:24;;;;;;;88.35;45.33;;;;;;;8.30;100.00;102913.59;5013211;28;20030;-60
2022/11/12 04:13:50;;;;;;;91.90;45.17;;;;;;;8.00;100.00;102862.56;5028513;28;20047;-58
2022/11/12 04:21:53;;;;;;;88.88;45.75;;;;;;;8.10;100.00;102886.25;5018225;28;20091;-58
2022/11/12 04:27:19;;;;;;;88.78;45.20;;;;;;;8.47;100.00;102945.25;4998309;28;20124;-60
2022/11/12 04:32:31;;;;;;;79.78;43.08;;;;;;;7.98;100.00;102874.75;5017138;28;20500;-60
2022/11/12 04:34:57;;;;;;;75.50;41.45;;;;;;;8.38;100.00;102946.03;4995276;28;20161;-59
2022/11/12 04:37:24;;;;;;;73.97;41.97;;;;;;;8.00;100.00;102883.53;5013191;28;20120;-57
2022/11/12 04:39:50;;;;;;;68.47;41.13;;;;;;;8.39;100.00;102946.91;5012572;28;20183;-60
2022/11/12 04:45:00;;;;;;;69.57;41.97;;;;;;;8.36;100.00;102929.41;5012613;28;20206;-59
2022/11/12 04:47:36;;;;;;;67.03;39.92;;;;;;;8.34;100.00;102946.88;5013012;28;20072;-59
2022/11/12 04:50:04;;;;;;;67.07;40.53;;;;;;;8.09;100.00;102899.34;5012961;28;20030;-60
2022/11/12 04:52:30;;;;;;;64.85;39.58;;;;;;;7.89;100.00;102870.28;5015501;28;20025;-59
2022/11/12 04:54:56;;;;;;;72.18;41.45;;;;;;;8.01;100.00;102899.28;5032140;28;20037;-58
2022/11/12 04:57:22;;;;;;;68.10;40.05;;;;;;;7.81;100.00;102864.09;5014586;28;20105;-58
2022/11/12 04:59:47;;;;;;;68.40;39.13;;;;;;;7.85;100.00;102879.00;5020066;28;20542;-59
2022/11/12 05:02:15;;;;;;;68.70;39.40;;;;;;;7.80;100.00;102872.81;5012680;28;20052;-58
2022/11/12 05:04:40;;;;;;;73.43;41.80;;;;;;;7.77;100.00;102864.91;5012450;28;20116;-58
2022/11/12 05:07:06;;;;;;;66.80;40.78;;;;;;;7.93;100.00;102916.66;5012423;28;20161;-58
2022/11/12 05:09:31;;;;;;;78.10;41.25;;;;;;;7.95;100.00;102914.94;5012544;28;20903;-58
2022/11/12 05:11:56;;;;;;;73.43;41.25;;;;;;;7.47;100.00;102833.13;5012392;28;20037;-59
2022/11/12 05:14:22;;;;;;;74.60;41.42;;;;;;;7.69;100.00;102890.16;5012039;28;20040;-59
2022/11/12 05:16:48;;;;;;;69.05;39.83;;;;;;;7.13;100.00;102788.16;4995213;28;20388;-59
2022/11/12 05:19:13;;;;;;;74.03;42.15;;;;;;;7.82;100.00;102907.81;5012561;28;20038;-60
2022/11/12 05:24:22;;;;;;;76.13;41.55;;;;;;;7.81;100.00;102904.28;5012107;28;20467;-59
2022/11/12 05:26:48;;;;;;;77.18;40.97;;;;;;;7.82;100.00;102910.44;5012486;28;20033;-60
2022/11/12 05:29:13;;;;;;;76.63;41.15;;;;;;;7.38;100.00;102833.88;5012501;28;20046;-59
2022/11/12 05:31:38;;;;;;;92.95;43.35;;;;;;;7.46;100.00;102847.06;5012075;28;20428;-59
2022/11/12 05:34:04;;;;;;;188.63;46.33;;;;;;;7.68;100.00;102915.47;5013010;28;20030;-59
2022/11/12 05:36:29;;;;;;;169.48;44.47;;;;;;;7.67;100.00;102916.38;5015648;28;20030;-59
2022/11/12 05:38:54;;;;;;;148.30;43.20;;;;;;;7.65;100.00;102925.94;4998523;28;20053;-59
2022/11/12 05:41:20;;;;;;;175.02;44.80;;;;;;;7.21;100.00;102856.34;4998495;28;20038;-59
2022/11/12 05:43:45;;;;;;;83.35;39.05;;;;;;;7.22;100.00;102852.88;4998717;28;20042;-59
2022/11/12 05:46:10;;;;;;;110.18;43.60;;;;;;;7.13;100.00;102834.41;5016145;28;20030;-59
2022/11/12 05:48:36;;;;;;;110.93;40.90;;;;;;;7.54;100.00;102909.19;4998109;28;20040;-59
2022/11/12 05:51:01;;;;;;;128.77;38.88;;;;;;;7.52;100.00;102904.78;4998481;28;20034;-59
2022/11/12 05:53:26;;;;;;;141.38;41.08;;;;;;;7.46;100.00;102902.97;5024521;28;20037;-58
2022/11/12 05:55:51;;;;;;;139.23;38.42;;;;;;;7.40;100.00;102908.13;5035923;28;20040;-59
2022/11/12 05:58:17;;;;;;;118.65;39.35;;;;;;;7.41;100.00;102928.25;5004724;28;20054;-59
2022/11/12 06:00:42;;;;;;;96.95;38.13;;;;;;;7.35;100.00;102926.41;5015862;28;20041;-59
2022/11/12 06:03:08;;;;;;;140.55;41.47;;;;;;;6.85;100.00;102834.91;5021341;28;20040;-59
2022/11/12 06:05:34;;;;;;;123.63;40.10;;;;;;;7.16;100.00;102905.16;5017616;28;20034;-59
2022/11/12 06:08:00;;;;;;;101.15;36.33;;;;;;;7.11;100.00;102920.81;5000236;28;20053;-59
2022/11/12 06:10:26;;;;;;;93.00;36.28;;;;;;;7.08;100.00;102905.06;5032773;28;20037;-59
2022/11/12 06:12:52;;;;;;;104.60;36.72;;;;;;;6.68;100.00;102858.22;5030651;28;20601;-59
2022/11/12 06:15:18;;;;;;;88.57;35.00;;;;;;;6.83;100.00;102881.97;5014973;28;20092;-59
2022/11/12 06:17:44;;;;;;;72.88;33.47;;;;;;;6.93;100.00;102910.06;4997567;28;20493;-59
2022/11/12 06:20:10;;;;;;;66.03;30.77;;;;;;;6.81;100.00;102899.41;4997333;28;20115;-59
2022/11/12 06:22:35;;;;;;;79.97;35.05;;;;;;;6.54;100.00;102870.16;4996738;28;20050;-58
2022/11/12 06:25:00;;;;;;;96.57;34.20;;;;;;;6.77;100.00;102927.25;5014723;28;20034;-59
2022/11/12 06:27:26;;;;;;;73.13;32.63;;;;;;;6.70;100.00;102922.78;5014364;28;20117;-58
2022/11/12 06:29:51;;;;;;;67.00;32.97;;;;;;;6.65;100.00;102937.56;4981102;28;20052;-58
2022/11/12 06:32:17;;;;;;;62.28;33.05;;;;;;;6.62;100.00;102928.75;5015001;28;20033;-59
2022/11/12 06:34:43;;;;;;;57.30;31.08;;;;;;;6.51;100.00;102920.69;5015942;28;20033;-60
2022/11/12 06:37:08;;;;;;;63.58;30.10;;;;;;;6.47;100.00;102928.50;4997449;28;20072;-60
2022/11/12 06:39:33;;;;;;;53.60;31.00;;;;;;;6.41;100.00;102942.34;5013855;28;20042;-58
2022/11/12 06:41:58;;;;;;;50.92;30.85;;;;;;;6.29;100.00;102913.34;5014457;28;20108;-58
2022/11/12 06:44:24;;;;;;;51.47;30.92;;;;;;;6.30;100.00;102924.69;4996967;28;20046;-57
2022/11/12 06:46:49;;;;;;;50.92;31.23;;;;;;;6.25;100.00;102936.81;4996445;28;20045;-60
2022/11/12 06:49:15;;;;;;;54.40;31.35;;;;;;;6.16;100.00;102934.88;4997096;28;20037;-60
2022/11/12 06:51:40;;;;;;;48.45;31.23;;;;;;;6.11;100.00;102934.81;5022419;28;20025;-60
2022/11/12 06:54:05;;;;;;;49.63;31.30;;;;;;;5.62;100.00;102867.59;5034284;28;20087;-59
2022/11/12 06:56:31;;;;;;;46.90;30.17;;;;;;;5.49;100.00;102859.47;5016369;28;20118;-60
2022/11/12 06:58:56;;;;;;;51.70;32.42;;;;;;;5.89;100.00;102940.47;5016572;28;20392;-60
2022/11/12 07:01:25;;;;;;;50.08;31.40;;;;;;;5.56;100.00;102896.22;5033465;28;20381;-59
2022/11/12 07:03:51;;;;;;;43.35;30.67;;;;;;;5.71;100.00;102929.59;5033698;28;20480;-59
2022/11/12 07:06:19;;;;;;;43.70;30.40;;;;;;;5.36;100.00;102884.47;4996966;28;20034;-60
2022/11/12 07:08:45;;;;;;;42.75;30.23;;;;;;;5.23;100.00;102865.88;4996729;28;20492;-57
2022/11/12 07:11:11;;;;;;;44.35;28.73;;;;;;;5.26;100.00;102887.72;4984330;28;20030;-57
2022/11/12 07:13:36;;;;;;;39.70;29.33;;;;;;;5.56;100.00;102940.63;4998152;28;20635;-59
2022/11/12 07:16:03;;;;;;;40.08;29.58;;;;;;;5.26;100.00;102903.38;5014040;28;20045;-58
2022/11/12 07:18:29;;;;;;;37.63;28.58;;;;;;;5.54;100.00;102950.16;5014158;28;20488;-58
2022/11/12 07:21:09;;;;;;;37.30;27.27;;;;;;;5.30;100.00;102915.66;5018664;28;20033;-60
2022/11/12 07:23:35;;;;;;;37.20;28.27;;;;;;;5.58;100.00;102965.03;4996280;28;20076;-58
2022/11/12 07:26:03;;;;;;;38.10;28.48;;;;;;;5.54;100.00;102963.22;5014099;28;20394;-58
2022/11/12 07:28:29;;;;;;;36.13;28.88;;;;;;;5.17;100.00;102891.88;5013902;28;20386;-59
2022/11/12 07:31:02;;;;;;;38.38;28.20;;;;;;;5.57;100.00;102963.25;5013734;28;20076;-58
2022/11/12 07:33:28;;;;;;;36.70;27.77;;;;;;;5.23;100.00;102902.41;5013502;28;20058;-58
2022/11/12 07:35:58;;;;;;;38.28;28.45;;;;;;;5.59;100.00;102951.13;4996476;28;20034;-59
2022/11/12 07:38:23;;;;;;;36.85;29.25;;;;;;;5.25;100.00;102883.34;4996540;28;20357;-59
2022/11/12 07:40:49;;;;;;;38.67;29.63;;;;;;;5.64;100.00;102948.59;5013100;28;20133;-59
2022/11/12 07:43:14;;;;;;;34.25;28.08;;;;;;;5.33;100.00;102886.13;5031399;28;20132;-59
2022/11/12 07:45:39;;;;;;;34.47;29.67;;;;;;;5.57;100.00;102929.31;5015758;28;20029;-59
2022/11/12 07:48:05;;;;;;;38.83;27.25;;;;;;;5.73;100.00;102950.53;5028016;28;20042;-59
2022/11/12 07:50:30;;;;;;;33.03;27.55;;;;;;;5.45;100.00;102896.84;5013718;28;20037;-59
2022/11/12 07:52:58;;;;;;;36.00;27.80;;;;;;;5.78;100.00;102964.59;5019139;28;20477;-58
2022/11/12 07:55:24;;;;;;;41.78;29.27;;;;;;;5.79;100.00;102953.28;5013985;28;20072;-59
2022/11/12 07:57:49;;;;;;;32.80;26.98;;;;;;;5.81;100.00;102956.81;5012672;28;20069;-58
2022/11/12 08:00:15;;;;;;;34.03;27.08;;;;;;;5.41;100.00;102893.28;5013565;28;20065;-59
2022/11/12 08:02:40;;;;;;;32.90;26.58;;;;;;;5.87;100.00;102970.03;5025417;28;20491;-59
2022/11/12 08:05:06;;;;;;;35.17;25.88;;;;;;;5.50;100.00;102901.31;5031349;28;20128;-60
2022/11/12 08:07:31;;;;;;;32.97;26.90;;;;;;;5.88;100.00;102956.13;5016138;28;20041;-60
2022/11/12 08:09:57;;;;;;;31.38;27.95;;;;;;;5.95;100.00;102977.19;5015798;28;20504;-57
2022/11/12 08:12:23;;;;;;;36.75;27.85;;;;;;;5.98;100.00;102977.22;5016076;28;20413;-60
2022/11/12 08:14:48;;;;;;;33.67;27.67;;;;;;;6.02;100.00;102972.94;5016631;28;20037;-58
2022/11/12 08:17:13;;;;;;;34.00;27.13;;;;;;;6.01;100.00;102966.84;5031947;28;20040;-58
2022/11/12 08:19:39;;;;;;;33.65;27.23;;;;;;;5.61;100.00;102884.13;5012838;28;20033;-58
2022/11/12 08:22:04;;;;;;;32.90;26.23;;;;;;;6.11;100.00;102974.03;5012706;28;20125;-58
2022/11/12 08:24:29;;;;;;;32.85;25.45;;;;;;;6.17;100.00;102978.50;4995388;28;20044;-58
2022/11/12 08:26:54;;;;;;;31.92;25.85;;;;;;;6.17;100.00;102979.38;5012906;28;20100;-57
2022/11/12 08:29:22;;;;;;;33.35;26.13;;;;;;;6.23;100.00;102981.22;5012972;28;20034;-58
2022/11/12 08:31:47;;;;;;;33.58;26.40;;;;;;;5.88;100.00;102911.69;4989964;28;20041;-58
2022/11/12 08:34:12;;;;;;;32.17;26.08;;;;;;;6.03;100.00;102933.78;5013030;28;20030;-59
2022/11/12 08:36:39;;;;;;;30.60;25.08;;;;;;;6.35;100.00;102996.28;5020011;28;20038;-58
2022/11/12 08:39:05;;;;;;;31.58;26.50;;;;;;;6.01;100.00;102909.31;4994129;28;20478;-57
2022/11/12 08:41:30;;;;;;;31.27;25.63;;;;;;;6.03;100.00;102912.88;4995195;28;20409;-54
2022/11/12 08:43:56;;;;;;;31.10;23.73;;;;;;;6.13;100.00;102913.91;5012584;28;20034;-58
2022/11/12 08:46:22;;;;;;;31.52;25.83;;;;;;;6.18;100.00;102910.56;5012521;28;20038;-57
2022/11/12 08:48:47;;;;;;;32.75;24.42;;;;;;;6.65;100.00;102968.06;4994987;28;20044;-56
2022/11/12 08:51:12;;;;;;;34.60;27.33;;;;;;;6.77;100.00;102981.38;5012707;28;20488;-59
2022/11/12 08:53:38;;;;;;;28.17;24.50;;;;;;;6.88;100.00;102976.31;4994554;28;20065;-59
2022/11/12 08:56:03;;;;;;;30.80;25.45;;;;;;;6.60;100.00;102907.78;4995063;28;20496;-56
2022/11/12 08:58:28;;;;;;;29.33;24.48;;;;;;;6.97;100.00;102966.88;5012421;28;20041;-58
2022/11/12 09:00:55;;;;;;;28.70;23.88;;;;;;;6.77;100.00;102913.31;5012265;28;20132;-58
2022/11/12 09:03:22;;;;;;;31.88;25.02;;;;;;;7.23;100.00;102983.00;4994744;28;20464;-58
2022/11/12 09:05:48;;;;;;;31.13;24.52;;;;;;;7.18;100.00;102953.22;5012278;28;20187;-57
2022/11/12 09:08:32;;;;;;;28.65;24.45;;;;;;;7.41;100.00;102979.75;5012199;28;20038;-59
2022/11/12 09:10:58;;;;;;;28.33;23.33;;;;;;;7.45;100.00;102985.06;5010653;28;20033;-60
2022/11/12 09:13:23;;;;;;;30.02;24.58;;;;;;;7.52;100.00;102986.03;5011544;28;20424;-55
2022/11/12 09:15:48;;;;;;;28.52;23.58;;;;;;;7.34;100.00;102937.75;5012080;28;20160;-58
2022/11/12 09:18:16;;;;;;;26.02;22.25;;;;;;;7.41;100.00;102935.22;5011552;28;20429;-57
2022/11/12 09:20:41;;;;;;;27.70;23.55;;;;;;;7.34;100.00;102916.78;5012040;28;20372;-58
2022/11/12 09:23:09;;;;;;;27.60;23.13;;;;;;;7.73;100.00;102967.97;4994465;28;20042;-55
2022/11/12 09:25:35;;;;;;;26.70;21.98;;;;;;;7.47;100.00;102912.59;5011920;28;20037;-57
2022/11/12 09:28:12;;;;;;;25.20;22.55;;;;;;;7.89;100.00;102985.66;5011869;28;20044;-59
2022/11/12 09:30:42;;;;;;;26.35;21.45;;;;;;;7.55;100.00;102894.34;5012371;28;20034;-59
2022/11/12 09:33:07;;;;;;;24.65;20.98;;;;;;;8.03;100.00;102983.19;5012632;28;20038;-60
2022/11/12 09:35:33;;;;;;;29.67;22.45;;;;;;;7.70;100.00;102905.03;4994415;28;20034;-60
2022/11/12 09:37:58;;;;;;;26.35;21.38;;;;;;;8.07;100.00;102954.41;5012057;28;20034;-58
2022/11/12 09:40:36;;;;;;;22.65;20.20;;;;;;;7.76;100.00;102889.38;4994472;28;20061;-57
2022/11/12 09:43:09;;;;;;;27.95;21.55;;;;;;;8.29;100.00;102966.06;5012542;28;20034;-59
2022/11/12 09:45:35;;;;;;;23.65;20.75;;;;;;;7.92;100.00;102896.53;4994545;28;20026;-56
2022/11/12 09:48:08;;;;;;;21.90;19.63;;;;;;;8.06;100.00;102918.53;4978191;28;20083;-58
2022/11/12 09:50:40;;;;;;;22.55;20.15;;;;;;;8.17;100.00;102919.53;4994306;28;20034;-57
2022/11/12 09:53:18;;;;;;;23.50;20.80;;;;;;;8.08;100.00;102879.25;4994155;28;20038;-59
2022/11/12 09:55:46;;;;;;;22.42;20.05;;;;;;;8.47;100.00;102950.50;5011829;28;20030;-58
2022/11/12 09:58:13;;;;;;;25.75;20.00;;;;;;;8.20;100.00;102897.72;5011933;28;20156;-57
2022/11/12 10:00:53;;;;;;;22.67;19.10;;;;;;;8.63;100.00;102960.28;4993935;28;20072;-57
2022/11/12 10:03:42;;;;;;;21.35;19.05;;;;;;;8.70;100.00;102977.00;4994208;28;20038;-58
2022/11/12 10:06:15;;;;;;;22.20;19.83;;;;;;;8.76;100.00;102964.78;5010987;28;20112;-58
2022/11/12 10:08:49;;;;;;;24.88;18.95;;;;;;;8.76;100.00;102956.00;4993903;28;20540;-59
2022/11/12 10:12:30;;;;;;;24.70;18.08;;;;;;;8.90;100.00;102970.16;4994242;28;20030;-59
2022/11/12 10:14:50;;;;;;;20.35;18.25;;;;;;;8.99;100.00;102967.56;5011729;28;20038;-58
2022/11/12 10:17:27;;;;;;;18.83;16.77;;;;;;;8.70;100.00;102901.69;5012076;28;20469;-56
2022/11/12 10:20:03;;;;;;;19.52;17.38;;;;;;;9.10;100.00;102976.44;5011532;28;20454;-59
2022/11/12 10:22:57;;;;;;;20.52;18.35;;;;;;;9.15;100.00;102960.69;4997343;28;20034;-57
2022/11/12 10:25:23;;;;;;;19.50;17.35;;;;;;;9.23;100.00;102973.03;5015363;28;20034;-59
2022/11/12 10:27:49;;;;;;;20.48;17.13;;;;;;;8.97;100.00;102904.53;5015269;28;20125;-57
2022/11/12 10:30:17;;;;;;;16.15;14.43;;;;;;;9.24;100.00;102934.50;4997850;28;20113;-59
2022/11/12 10:32:44;;;;;;;18.25;15.02;;;;;;;9.50;100.00;102970.59;5015045;28;20057;-58
2022/11/12 10:35:12;;;;;;;16.08;13.88;;;;;;;9.54;100.00;102956.56;4997868;28;20088;-60
2022/11/12 10:37:46;;;;;;;17.70;13.82;;;;;;;9.61;100.00;102968.88;4997326;28;20073;-60
2022/11/12 10:40:21;;;;;;;14.38;12.95;;;;;;;9.70;100.00;102961.91;4997615;28;20132;-57
2022/11/12 10:43:15;;;;;;;14.23;12.63;;;;;;;9.80;100.00;102974.25;5015158;28;20030;-59
2022/11/12 10:45:41;;;;;;;15.00;12.70;;;;;;;9.88;100.00;102962.88;5003726;28;20037;-53
2022/11/12 10:48:23;;;;;;;13.43;12.13;;;;;;;9.97;100.00;102976.06;4997553;28;20049;-55
2022/11/12 10:50:48;;;;;;;13.18;11.30;;;;;;;10.08;100.00;102974.34;5015041;28;20477;-56
2022/11/12 10:53:31;;;;;;;15.40;11.55;;;;;;;10.10;100.00;102975.22;4997622;28;20056;-57
2022/11/12 10:56:03;;;;;;;13.25;11.63;;;;;;;10.01;100.00;102951.50;4997390;28;20485;-59
2022/11/12 10:58:28;;;;;;;;;;;;;;;10.23;100.00;102976.19;5015466;28;20469;-53
2022/11/12 11:01:00;;;;;;;13.23;10.95;;;;;;;10.30;100.00;102975.34;4997497;28;19917;-61
2022/11/12 11:03:43;;;;;;;12.00;10.85;;;;;;;10.11;100.00;102924.38;4997290;28;20397;-57
2022/11/12 11:06:15;;;;;;;11.85;10.50;;;;;;;10.45;100.00;102977.13;4978471;28;20093;-60
2022/11/12 11:08:40;;;;;;;11.80;10.35;;;;;;;10.49;100.00;102974.50;5012239;28;20044;-57
2022/11/12 11:11:09;;;;;;;12.60;10.50;;;;;;;10.53;100.00;102975.38;5012222;28;20034;-53
2022/11/12 11:13:35;;;;;;;11.15;9.80;;;;;;;10.18;100.00;102900.75;5012389;28;20038;-58
2022/11/12 11:16:06;;;;;;;13.93;10.15;;;;;;;10.56;100.00;102970.13;4994839;28;20060;-56
2022/11/12 11:18:33;;;;;;;10.40;9.40;;;;;;;10.26;100.00;102904.25;5012086;28;20033;-57
2022/11/12 11:21:21;;;;;;;14.10;10.30;;;;;;;10.65;100.00;102962.25;4994562;28;20037;-56
2022/11/12 11:23:55;;;;;;;12.68;10.18;;;;;;;10.78;100.00;102960.47;4994409;28;20116;-58
2022/11/12 11:26:36;;;;;;;11.02;8.70;;;;;;;10.81;100.00;102947.31;4994772;28;20133;-57
2022/11/12 11:29:25;;;;;;;11.27;8.82;;;;;;;10.98;100.00;102964.88;5011932;28;20126;-56